createdAt,value
2018-05-09T00:00:25.780Z,15.86
2018-05-09T00:01:25.785Z,15.84
2018-05-09T00:02:25.793Z,15.76
2018-05-09T00:03:25.985Z,15.76
2018-05-09T00:04:25.781Z,15.88
2018-05-09T00:05:25.783Z,15.86
2018-05-09T00:06:25.984Z,15.86
2018-05-09T00:07:25.783Z,15.80
2018-05-09T00:08:25.796Z,15.75
2018-05-09T00:09:25.801Z,15.84
2018-05-09T00:10:25.796Z,15.75
2018-05-09T00:11:25.779Z,15.84
2018-05-09T00:12:25.781Z,15.67
2018-05-09T00:13:25.792Z,15.68
2018-05-09T00:14:25.983Z,15.64
2018-05-09T00:15:25.780Z,15.67
2018-05-09T00:16:25.800Z,15.64
2018-05-09T00:17:25.986Z,15.65
2018-05-09T00:18:25.795Z,15.64
2018-05-09T00:19:25.797Z,15.64
2018-05-09T00:20:25.793Z,15.62
2018-05-09T00:21:25.999Z,15.49
2018-05-09T00:22:25.986Z,15.43
2018-05-09T00:23:25.776Z,15.47
2018-05-09T00:24:25.982Z,15.40
2018-05-09T00:25:25.778Z,15.24
2018-05-09T00:26:25.783Z,15.19
2018-05-09T00:27:25.787Z,15.11
2018-05-09T00:28:25.787Z,15.00
2018-05-09T00:29:25.784Z,14.85
2018-05-09T00:30:25.997Z,14.89
2018-05-09T00:31:25.776Z,14.79
2018-05-09T00:32:25.980Z,14.63
2018-05-09T00:33:25.780Z,14.62
2018-05-09T00:34:25.992Z,14.51
2018-05-09T00:35:25.803Z,14.51
2018-05-09T00:36:25.775Z,14.43
2018-05-09T00:37:25.786Z,14.47
2018-05-09T00:38:25.784Z,14.30
2018-05-09T00:39:26.006Z,14.36
2018-05-09T00:40:25.785Z,14.22
2018-05-09T00:41:25.795Z,14.22
2018-05-09T00:42:25.798Z,14.22
2018-05-09T00:43:25.784Z,14.23
2018-05-09T00:44:25.784Z,14.22
2018-05-09T00:45:25.786Z,14.22
2018-05-09T00:46:25.983Z,14.18
2018-05-09T00:47:25.797Z,14.25
2018-05-09T00:48:25.769Z,14.23
2018-05-09T00:49:25.974Z,14.18
2018-05-09T00:50:25.781Z,14.14
2018-05-09T00:51:25.777Z,14.11
2018-05-09T00:52:25.765Z,14.15
2018-05-09T00:53:25.778Z,14.15
2018-05-09T00:54:25.767Z,14.11
2018-05-09T00:55:25.969Z,14.15
2018-05-09T00:56:25.766Z,14.15
2018-05-09T00:57:25.763Z,14.10
2018-05-09T00:58:25.765Z,14.03
2018-05-09T00:59:25.764Z,13.92
2018-05-09T01:00:25.771Z,13.95
2018-05-09T01:01:25.965Z,13.97
2018-05-09T01:02:25.762Z,13.86
2018-05-09T01:03:25.974Z,13.79
2018-05-09T01:04:25.772Z,13.68
2018-05-09T01:05:25.759Z,13.63
2018-05-09T01:06:25.966Z,13.56
2018-05-09T01:07:25.768Z,13.62
2018-05-09T01:08:25.965Z,13.47
2018-05-09T01:09:25.783Z,13.44
2018-05-09T01:10:25.766Z,13.37
2018-05-09T01:11:25.959Z,13.31
2018-05-09T01:12:25.751Z,13.20
2018-05-09T01:13:25.985Z,13.28
2018-05-09T01:14:25.757Z,13.15
2018-05-09T01:15:25.751Z,13.25
2018-05-09T01:16:25.770Z,13.13
2018-05-09T01:17:25.963Z,13.09
2018-05-09T01:18:25.955Z,13.16
2018-05-09T01:19:25.961Z,13.15
2018-05-09T01:20:25.952Z,13.18
2018-05-09T01:21:25.746Z,13.25
2018-05-09T01:22:25.748Z,13.13
2018-05-09T01:23:25.750Z,13.13
2018-05-09T01:24:25.757Z,13.19
2018-05-09T01:25:25.944Z,13.15
2018-05-09T01:26:25.743Z,13.18
2018-05-09T01:27:25.953Z,13.11
2018-05-09T01:28:25.746Z,12.98
2018-05-09T01:29:25.735Z,13.00
2018-05-09T01:30:25.737Z,12.98
2018-05-09T01:31:25.742Z,12.91
2018-05-09T01:32:25.735Z,13.01
2018-05-09T01:33:25.754Z,13.04
2018-05-09T01:34:25.742Z,13.03
2018-05-09T01:35:25.727Z,12.94
2018-05-09T01:36:25.737Z,12.93
2018-05-09T01:37:25.945Z,12.94
2018-05-09T01:38:25.738Z,12.87
2018-05-09T01:39:25.724Z,12.95
2018-05-09T01:40:25.732Z,12.79
2018-05-09T01:41:25.926Z,12.68
2018-05-09T01:42:25.722Z,12.65
2018-05-09T01:43:25.927Z,12.49
2018-05-09T01:44:25.921Z,12.49
2018-05-09T01:45:25.923Z,12.54
2018-05-09T01:46:25.941Z,12.36
2018-05-09T01:47:25.919Z,12.36
2018-05-09T01:48:25.714Z,12.43
2018-05-09T01:49:25.927Z,12.40
2018-05-09T01:50:25.712Z,12.42
2018-05-09T01:51:25.724Z,12.36
2018-05-09T01:52:25.709Z,12.42
2018-05-09T01:53:25.912Z,12.53
2018-05-09T01:54:25.711Z,12.62
2018-05-09T01:55:25.920Z,12.58
2018-05-09T01:56:25.701Z,12.54
2018-05-09T01:57:25.725Z,12.57
2018-05-09T01:58:25.703Z,12.50
2018-05-09T01:59:25.718Z,12.60
2018-05-09T02:00:25.707Z,12.50
2018-05-09T02:01:25.695Z,12.64
2018-05-09T02:02:25.709Z,12.53
2018-05-09T02:03:25.694Z,12.49
2018-05-09T02:04:25.753Z,12.35
2018-05-09T02:05:25.695Z,12.37
2018-05-09T02:06:25.893Z,12.42
2018-05-09T02:07:25.698Z,12.40
2018-05-09T02:08:25.685Z,12.37
2018-05-09T02:09:25.708Z,12.32
2018-05-09T02:10:25.689Z,12.31
2018-05-09T02:11:25.697Z,12.29
2018-05-09T02:12:25.689Z,12.22
2018-05-09T02:13:25.885Z,12.12
2018-05-09T02:14:25.706Z,12.15
2018-05-09T02:15:25.689Z,12.13
2018-05-09T02:16:25.673Z,12.12
2018-05-09T02:17:25.674Z,12.18
2018-05-09T02:18:25.697Z,12.15
2018-05-09T02:19:25.670Z,12.12
2018-05-09T02:20:25.682Z,12.12
2018-05-09T02:21:25.885Z,12.13
2018-05-09T02:22:25.678Z,12.24
2018-05-09T02:23:25.676Z,12.20
2018-05-09T02:24:25.865Z,12.20
2018-05-09T02:25:25.864Z,12.18
2018-05-09T02:26:25.683Z,12.31
2018-05-09T02:27:25.860Z,12.27
2018-05-09T02:28:25.657Z,12.24
2018-05-09T02:29:25.656Z,12.27
2018-05-09T02:30:25.653Z,12.27
2018-05-09T02:31:25.653Z,12.24
2018-05-09T02:32:25.852Z,12.12
2018-05-09T02:33:25.647Z,12.15
2018-05-09T02:34:25.648Z,12.10
2018-05-09T02:35:25.660Z,12.18
2018-05-09T02:36:25.654Z,12.02
2018-05-09T02:37:25.847Z,12.12
2018-05-09T02:38:25.640Z,12.07
2018-05-09T02:39:25.664Z,12.10
2018-05-09T02:40:25.647Z,12.09
2018-05-09T02:41:25.636Z,12.06
2018-05-09T02:42:25.838Z,12.03
2018-05-09T02:43:25.642Z,11.95
2018-05-09T02:44:25.629Z,12.07
2018-05-09T02:45:25.660Z,12.03
2018-05-09T02:46:25.631Z,11.95
2018-05-09T02:47:25.634Z,11.86
2018-05-09T02:48:25.637Z,11.90
2018-05-09T02:49:25.624Z,11.87
2018-05-09T02:50:25.634Z,11.77
2018-05-09T02:51:25.627Z,11.86
2018-05-09T02:52:25.623Z,11.77
2018-05-09T02:53:25.820Z,11.83
2018-05-09T02:54:25.621Z,11.83
2018-05-09T02:55:25.613Z,11.78
2018-05-09T02:56:25.608Z,11.86
2018-05-09T02:57:25.911Z,11.83
2018-05-09T02:58:25.607Z,11.81
2018-05-09T02:59:25.616Z,11.81
2018-05-09T03:00:25.605Z,11.83
2018-05-09T03:01:25.612Z,11.81
2018-05-09T03:02:26.056Z,11.84
2018-05-09T03:03:25.601Z,11.69
2018-05-09T03:04:25.603Z,11.68
2018-05-09T03:05:25.597Z,11.70
2018-05-09T03:06:25.806Z,11.60
2018-05-09T03:07:25.600Z,11.51
2018-05-09T03:08:25.587Z,11.57
2018-05-09T03:09:25.586Z,11.54
2018-05-09T03:10:25.790Z,11.57
2018-05-09T03:11:25.589Z,11.55
2018-05-09T03:12:25.799Z,11.52
2018-05-09T03:13:25.593Z,11.54
2018-05-09T03:14:25.792Z,11.52
2018-05-09T03:15:25.588Z,11.65
2018-05-09T03:16:25.586Z,11.59
2018-05-09T03:17:25.578Z,11.60
2018-05-09T03:18:25.593Z,11.65
2018-05-09T03:19:25.588Z,11.65
2018-05-09T03:20:25.581Z,11.70
2018-05-09T03:21:25.564Z,11.68
2018-05-09T03:22:25.579Z,11.43
2018-05-09T03:23:25.763Z,11.48
2018-05-09T03:24:25.557Z,11.45
2018-05-09T03:25:25.573Z,11.27
2018-05-09T03:26:25.555Z,11.17
2018-05-09T03:27:25.565Z,11.12
2018-05-09T03:28:25.559Z,11.08
2018-05-09T03:29:25.617Z,11.10
2018-05-09T03:30:25.545Z,11.11
2018-05-09T03:31:25.543Z,11.10
2018-05-09T03:32:25.541Z,11.17
2018-05-09T03:33:25.540Z,11.10
2018-05-09T03:34:25.539Z,11.12
2018-05-09T03:35:25.547Z,11.15
2018-05-09T03:36:25.737Z,11.15
2018-05-09T03:37:25.807Z,11.15
2018-05-09T03:38:25.544Z,11.11
2018-05-09T03:39:25.528Z,11.19
2018-05-09T03:40:25.539Z,11.25
2018-05-09T03:41:25.733Z,11.25
2018-05-09T03:42:25.525Z,11.32
2018-05-09T03:43:25.535Z,11.44
2018-05-09T03:44:25.533Z,11.35
2018-05-09T03:45:25.517Z,11.26
2018-05-09T03:46:25.516Z,11.40
2018-05-09T03:47:25.524Z,11.29
2018-05-09T03:48:25.714Z,11.32
2018-05-09T03:49:25.727Z,11.26
2018-05-09T03:50:25.722Z,11.23
2018-05-09T03:51:25.503Z,11.29
2018-05-09T03:52:25.506Z,11.19
2018-05-09T03:53:25.504Z,11.27
2018-05-09T03:54:25.705Z,11.26
2018-05-09T03:55:25.500Z,11.32
2018-05-09T03:56:25.493Z,11.29
2018-05-09T03:57:25.492Z,11.30
2018-05-09T03:58:25.696Z,11.27
2018-05-09T03:59:25.577Z,11.26
2018-05-09T04:00:25.483Z,11.19
2018-05-09T04:01:25.499Z,11.18
2018-05-09T04:02:25.689Z,11.05
2018-05-09T04:03:25.493Z,11.08
2018-05-09T04:04:25.682Z,10.94
2018-05-09T04:05:25.477Z,10.90
2018-05-09T04:06:25.484Z,10.89
2018-05-09T04:07:25.481Z,10.90
2018-05-09T04:08:25.676Z,10.96
2018-05-09T04:09:25.517Z,11.02
2018-05-09T04:10:25.467Z,10.97
2018-05-09T04:11:25.474Z,11.04
2018-05-09T04:12:25.473Z,11.11
2018-05-09T04:13:25.472Z,11.11
2018-05-09T04:14:25.455Z,11.26
2018-05-09T04:15:25.661Z,11.26
2018-05-09T04:16:25.453Z,11.35
2018-05-09T04:17:25.451Z,11.32
2018-05-09T04:18:25.661Z,11.33
2018-05-09T04:19:25.464Z,11.35
2018-05-09T04:20:25.648Z,11.35
2018-05-09T04:21:25.669Z,11.29
2018-05-09T04:22:25.442Z,11.27
2018-05-09T04:23:25.434Z,11.29
2018-05-09T04:24:25.653Z,11.19
2018-05-09T04:25:25.437Z,11.14
2018-05-09T04:26:25.636Z,11.14
2018-05-09T04:27:25.433Z,11.07
2018-05-09T04:28:25.644Z,11.10
2018-05-09T04:29:25.440Z,11.05
2018-05-09T04:30:25.422Z,11.04
2018-05-09T04:31:25.418Z,10.93
2018-05-09T04:32:25.417Z,10.93
2018-05-09T04:33:25.425Z,10.89
2018-05-09T04:34:25.416Z,11.00
2018-05-09T04:35:25.411Z,10.93
2018-05-09T04:36:25.409Z,10.87
2018-05-09T04:37:25.409Z,10.82
2018-05-09T04:38:25.404Z,10.84
2018-05-09T04:39:25.405Z,10.97
2018-05-09T04:40:25.401Z,10.96
2018-05-09T04:41:25.606Z,10.97
2018-05-09T04:42:25.615Z,11.00
2018-05-09T04:43:25.391Z,11.00
2018-05-09T04:44:25.440Z,11.14
2018-05-09T04:45:25.401Z,11.17
2018-05-09T04:46:25.603Z,11.14
2018-05-09T04:47:25.383Z,11.27
2018-05-09T04:48:25.387Z,11.36
2018-05-09T04:49:25.386Z,11.36
2018-05-09T04:50:25.392Z,11.43
2018-05-09T04:51:25.609Z,11.44
2018-05-09T04:52:25.578Z,11.59
2018-05-09T04:53:25.584Z,11.60
2018-05-09T04:54:25.380Z,11.69
2018-05-09T04:55:25.488Z,11.81
2018-05-09T04:56:25.361Z,11.78
2018-05-09T04:57:25.365Z,11.86
2018-05-09T04:58:25.369Z,11.86
2018-05-09T04:59:25.395Z,11.90
2018-05-09T05:00:25.358Z,12.04
2018-05-09T05:01:25.355Z,12.09
2018-05-09T05:02:25.353Z,12.20
2018-05-09T05:03:25.552Z,12.25
2018-05-09T05:04:25.356Z,12.35
2018-05-09T05:05:25.358Z,12.32
2018-05-09T05:06:25.340Z,12.42
2018-05-09T05:07:25.340Z,12.49
2018-05-09T05:08:25.539Z,12.49
2018-05-09T05:09:25.585Z,12.57
2018-05-09T05:10:25.541Z,12.60
2018-05-09T05:11:25.330Z,12.62
2018-05-09T05:12:25.328Z,12.64
2018-05-09T05:13:25.331Z,12.72
2018-05-09T05:14:25.337Z,12.85
2018-05-09T05:15:25.323Z,12.90
2018-05-09T05:16:25.334Z,12.80
2018-05-09T05:17:25.331Z,12.85
2018-05-09T05:18:25.317Z,12.97
2018-05-09T05:19:25.313Z,13.00
2018-05-09T05:20:25.322Z,12.97
2018-05-09T05:21:25.311Z,13.11
2018-05-09T05:22:25.311Z,13.08
2018-05-09T05:23:25.523Z,13.12
2018-05-09T05:24:25.524Z,13.23
2018-05-09T05:25:25.319Z,13.28
2018-05-09T05:26:25.305Z,13.23
2018-05-09T05:27:25.312Z,13.37
2018-05-09T05:28:25.297Z,13.42
2018-05-09T05:29:25.501Z,13.46
2018-05-09T05:30:25.513Z,13.53
2018-05-09T05:31:25.297Z,13.65
2018-05-09T05:32:25.296Z,13.62
2018-05-09T05:33:25.311Z,13.75
2018-05-09T05:34:25.299Z,13.79
2018-05-09T05:35:25.299Z,13.95
2018-05-09T05:36:25.299Z,13.90
2018-05-09T05:37:25.311Z,13.87
2018-05-09T05:38:25.497Z,13.86
2018-05-09T05:39:25.308Z,14.04
2018-05-09T05:40:25.296Z,14.07
2018-05-09T05:41:25.482Z,14.17
2018-05-09T05:42:25.278Z,14.15
2018-05-09T05:43:25.286Z,14.20
2018-05-09T05:44:25.272Z,14.30
2018-05-09T05:45:25.496Z,14.36
2018-05-09T05:46:25.273Z,14.43
2018-05-09T05:47:25.269Z,14.50
2018-05-09T05:48:25.277Z,14.62
2018-05-09T05:49:25.287Z,14.79
2018-05-09T05:50:25.264Z,14.78
2018-05-09T05:51:25.261Z,14.73
2018-05-09T05:52:25.260Z,14.96
2018-05-09T05:53:25.260Z,14.91
2018-05-09T05:54:25.271Z,14.99
2018-05-09T05:55:25.259Z,15.06
2018-05-09T05:56:25.257Z,15.11
2018-05-09T05:57:25.268Z,15.04
2018-05-09T05:58:25.268Z,15.14
2018-05-09T05:59:25.259Z,15.17
2018-05-09T06:00:25.454Z,15.25
2018-05-09T06:01:25.263Z,15.25
2018-05-09T06:02:25.250Z,15.35
2018-05-09T06:03:25.252Z,15.37
2018-05-09T06:04:25.259Z,15.39
2018-05-09T06:05:25.247Z,15.37
2018-05-09T06:06:25.269Z,15.35
2018-05-09T06:07:25.257Z,15.42
2018-05-09T06:08:25.252Z,15.46
2018-05-09T06:09:25.243Z,15.52
2018-05-09T06:10:25.478Z,15.57
2018-05-09T06:11:25.446Z,15.68
2018-05-09T06:12:25.252Z,15.65
2018-05-09T06:13:25.248Z,15.79
2018-05-09T06:14:25.248Z,15.90
2018-05-09T06:15:25.451Z,15.90
2018-05-09T06:16:25.237Z,15.90
2018-05-09T06:17:25.252Z,15.92
2018-05-09T06:18:25.260Z,16.01
2018-05-09T06:19:25.247Z,15.94
2018-05-09T06:20:25.236Z,16.10
2018-05-09T06:21:25.235Z,16.21
2018-05-09T06:22:25.248Z,16.17
2018-05-09T06:23:25.229Z,16.32
2018-05-09T06:24:25.444Z,16.39
2018-05-09T06:25:25.245Z,16.32
2018-05-09T06:26:25.443Z,16.39
2018-05-09T06:27:25.231Z,16.38
2018-05-09T06:28:25.228Z,16.49
2018-05-09T06:29:25.231Z,16.49
2018-05-09T06:30:25.230Z,16.60
2018-05-09T06:31:25.225Z,16.69
2018-05-09T06:32:25.233Z,16.78
2018-05-09T06:33:25.223Z,16.86
2018-05-09T06:34:25.430Z,17.02
2018-05-09T06:35:25.426Z,17.01
2018-05-09T06:36:25.225Z,17.01
2018-05-09T06:37:25.221Z,17.06
2018-05-09T06:38:25.448Z,17.06
2018-05-09T06:39:25.241Z,16.99
2018-05-09T06:40:25.427Z,16.99
2018-05-09T06:41:25.224Z,17.04
2018-05-09T06:42:25.436Z,17.14
2018-05-09T06:43:25.229Z,17.29
2018-05-09T06:44:25.221Z,17.29
2018-05-09T06:45:25.232Z,17.34
2018-05-09T06:46:25.224Z,17.39
2018-05-09T06:47:25.426Z,17.36
2018-05-09T06:48:25.229Z,17.41
2018-05-09T06:49:25.230Z,17.41
2018-05-09T06:50:25.219Z,17.48
2018-05-09T06:51:25.221Z,17.48
2018-05-09T06:52:25.422Z,17.56
2018-05-09T06:53:25.419Z,17.52
2018-05-09T06:54:25.229Z,17.56
2018-05-09T06:55:25.217Z,17.59
2018-05-09T06:56:25.218Z,17.52
2018-05-09T06:57:25.221Z,17.52
2018-05-09T06:58:25.221Z,17.76
2018-05-09T06:59:25.432Z,17.83
2018-05-09T07:00:25.233Z,17.89
2018-05-09T07:01:25.426Z,17.97
2018-05-09T07:02:25.245Z,18.00
2018-05-09T07:03:25.217Z,18.13
2018-05-09T07:04:25.230Z,18.23
2018-05-09T07:05:25.245Z,18.41
2018-05-09T07:06:25.455Z,18.35
2018-05-09T07:07:25.224Z,18.41
2018-05-09T07:08:25.424Z,18.52
2018-05-09T07:09:25.230Z,18.60
2018-05-09T07:10:25.216Z,18.68
2018-05-09T07:11:25.223Z,18.77
2018-05-09T07:12:25.229Z,18.83
2018-05-09T07:13:25.436Z,18.93
2018-05-09T07:14:25.219Z,19.09
2018-05-09T07:15:25.424Z,19.26
2018-05-09T07:16:25.425Z,19.64
2018-05-09T07:17:25.222Z,19.77
2018-05-09T07:18:25.223Z,19.91
2018-05-09T07:19:25.221Z,20.00
2018-05-09T07:20:25.435Z,20.02
2018-05-09T07:21:25.429Z,20.25
2018-05-09T07:22:25.249Z,20.51
2018-05-09T07:23:25.429Z,20.95
2018-05-09T07:24:25.445Z,21.32
2018-05-09T07:25:25.230Z,21.76
2018-05-09T07:26:25.246Z,22.18
2018-05-09T07:27:25.230Z,22.54
2018-05-09T07:28:25.232Z,22.94
2018-05-09T07:29:25.459Z,23.36
2018-05-09T07:30:25.249Z,23.65
2018-05-09T07:31:25.241Z,23.95
2018-05-09T07:32:25.241Z,24.02
2018-05-09T07:33:25.444Z,24.21
2018-05-09T07:34:25.243Z,24.28
2018-05-09T07:35:25.488Z,24.43
2018-05-09T07:36:25.250Z,24.36
2018-05-09T07:37:25.249Z,24.21
2018-05-09T07:38:25.262Z,23.83
2018-05-09T07:39:25.464Z,23.54
2018-05-09T07:40:25.466Z,23.43
2018-05-09T07:41:25.458Z,23.20
2018-05-09T07:42:25.258Z,22.87
2018-05-09T07:43:25.271Z,22.63
2018-05-09T07:44:25.484Z,22.54
2018-05-09T07:45:25.262Z,22.30
2018-05-09T07:46:25.264Z,22.17
2018-05-09T07:47:25.467Z,22.23
2018-05-09T07:48:25.471Z,22.39
2018-05-09T07:49:25.274Z,22.44
2018-05-09T07:50:25.275Z,22.47
2018-05-09T07:51:25.286Z,22.50
2018-05-09T07:52:25.287Z,22.43
2018-05-09T07:53:25.274Z,22.43
2018-05-09T07:54:25.491Z,22.36
2018-05-09T07:55:25.338Z,22.28
2018-05-09T07:56:25.280Z,22.04
2018-05-09T07:57:25.302Z,21.77
2018-05-09T07:58:25.283Z,21.64
2018-05-09T07:59:25.535Z,21.51
2018-05-09T08:00:25.302Z,21.40
2018-05-09T08:01:25.302Z,21.29
2018-05-09T08:02:25.291Z,21.20
2018-05-09T08:03:25.290Z,21.20
2018-05-09T08:04:25.313Z,21.18
2018-05-09T08:05:25.502Z,21.14
2018-05-09T08:06:25.306Z,21.12
2018-05-09T08:07:25.295Z,21.15
2018-05-09T08:08:25.308Z,21.06
2018-05-09T08:09:25.308Z,21.12
2018-05-09T08:10:25.316Z,21.12
2018-05-09T08:11:25.515Z,21.12
2018-05-09T08:12:25.506Z,21.24
2018-05-09T08:13:25.331Z,21.24
2018-05-09T08:14:25.319Z,21.27
2018-05-09T08:15:25.313Z,21.30
2018-05-09T08:16:25.310Z,21.46
2018-05-09T08:17:25.341Z,21.43
2018-05-09T08:18:25.326Z,21.66
2018-05-09T08:19:25.333Z,21.72
2018-05-09T08:20:25.319Z,21.77
2018-05-09T08:21:25.340Z,21.72
2018-05-09T08:22:25.331Z,21.62
2018-05-09T08:23:25.335Z,21.80
2018-05-09T08:24:25.327Z,22.07
2018-05-09T08:25:25.545Z,22.45
2018-05-09T08:26:25.332Z,22.73
2018-05-09T08:27:25.343Z,23.05
2018-05-09T08:28:25.535Z,23.17
2018-05-09T08:29:25.539Z,23.28
2018-05-09T08:30:25.622Z,23.44
2018-05-09T08:31:25.337Z,23.66
2018-05-09T08:32:25.351Z,23.84
2018-05-09T08:33:25.343Z,23.92
2018-05-09T08:34:25.365Z,24.21
2018-05-09T08:35:25.351Z,24.35
2018-05-09T08:36:25.372Z,24.38
2018-05-09T08:37:25.354Z,24.35
2018-05-09T08:38:25.369Z,24.33
2018-05-09T08:39:25.353Z,24.32
2018-05-09T08:40:25.372Z,24.43
2018-05-09T08:41:25.362Z,24.47
2018-05-09T08:42:25.562Z,24.60
2018-05-09T08:43:25.453Z,24.38
2018-05-09T08:44:25.400Z,24.29
2018-05-09T08:45:25.378Z,24.18
2018-05-09T08:46:25.370Z,24.18
2018-05-09T08:47:25.386Z,24.28
2018-05-09T08:48:25.391Z,24.24
2018-05-09T08:49:25.524Z,24.26
2018-05-09T08:50:25.591Z,24.42
2018-05-09T08:51:25.379Z,24.68
2018-05-09T08:52:25.382Z,24.88
2018-05-09T08:53:25.383Z,24.96
2018-05-09T08:54:25.406Z,24.93
2018-05-09T08:55:25.495Z,24.96
2018-05-09T08:56:25.395Z,24.96
2018-05-09T08:57:25.394Z,25.11
2018-05-09T08:58:25.396Z,25.14
2018-05-09T08:59:25.411Z,25.14
2018-05-09T09:00:25.402Z,24.98
2018-05-09T09:01:25.413Z,24.76
2018-05-09T09:02:25.609Z,24.33
2018-05-09T09:03:25.622Z,24.23
2018-05-09T09:04:25.463Z,24.18
2018-05-09T09:05:25.413Z,24.11
2018-05-09T09:06:25.489Z,24.03
2018-05-09T09:07:25.415Z,24.03
2018-05-09T09:08:25.619Z,23.99
2018-05-09T09:09:25.658Z,23.88
2018-05-09T09:10:25.420Z,23.77
2018-05-09T09:11:25.628Z,23.46
2018-05-09T09:12:25.440Z,23.48
2018-05-09T09:13:25.441Z,23.54
2018-05-09T09:14:25.430Z,23.80
2018-05-09T09:15:25.555Z,23.96
2018-05-09T09:16:25.436Z,23.76
2018-05-09T09:17:25.640Z,23.65
2018-05-09T09:18:25.657Z,23.83
2018-05-09T09:19:25.673Z,24.08
2018-05-09T09:20:25.453Z,24.28
2018-05-09T09:21:25.458Z,24.26
2018-05-09T09:22:25.664Z,24.21
2018-05-09T09:23:25.455Z,24.20
2018-05-09T09:24:25.455Z,24.18
2018-05-09T09:25:25.456Z,24.06
2018-05-09T09:26:25.457Z,23.88
2018-05-09T09:27:25.515Z,23.74
2018-05-09T09:28:25.665Z,23.51
2018-05-09T09:29:25.683Z,23.31
2018-05-09T09:30:25.467Z,23.24
2018-05-09T09:31:25.478Z,23.00
2018-05-09T09:32:25.479Z,22.93
2018-05-09T09:33:25.474Z,22.83
2018-05-09T09:34:25.484Z,22.78
2018-05-09T09:35:25.693Z,22.85
2018-05-09T09:36:25.479Z,23.15
2018-05-09T09:37:25.481Z,23.36
2018-05-09T09:38:25.482Z,23.47
2018-05-09T09:39:25.490Z,23.63
2018-05-09T09:40:25.496Z,23.66
2018-05-09T09:41:25.513Z,23.68
2018-05-09T09:42:25.493Z,23.47
2018-05-09T09:43:25.510Z,23.34
2018-05-09T09:44:25.541Z,23.32
2018-05-09T09:45:25.704Z,23.23
2018-05-09T09:46:25.500Z,23.00
2018-05-09T09:47:25.501Z,23.00
2018-05-09T09:48:25.520Z,22.90
2018-05-09T09:49:25.520Z,22.93
2018-05-09T09:50:25.729Z,22.93
2018-05-09T09:51:25.714Z,22.96
2018-05-09T09:52:25.515Z,22.90
2018-05-09T09:53:25.520Z,22.88
2018-05-09T09:54:25.587Z,22.83
2018-05-09T09:55:25.546Z,22.62
2018-05-09T09:56:25.742Z,22.29
2018-05-09T09:57:25.729Z,22.20
2018-05-09T09:58:25.528Z,22.11
2018-05-09T09:59:25.564Z,22.20
2018-05-09T10:00:25.735Z,22.18
2018-05-09T10:01:25.560Z,22.13
2018-05-09T10:02:25.536Z,22.15
2018-05-09T10:03:25.552Z,22.25
2018-05-09T10:04:25.547Z,22.26
2018-05-09T10:05:25.568Z,22.28
2018-05-09T10:06:25.557Z,22.22
2018-05-09T10:07:25.765Z,22.25
2018-05-09T10:08:25.549Z,22.59
2018-05-09T10:09:25.559Z,22.76
2018-05-09T10:10:25.567Z,22.72
2018-05-09T10:11:25.571Z,22.75
2018-05-09T10:12:25.558Z,22.55
2018-05-09T10:13:25.568Z,22.47
2018-05-09T10:14:25.569Z,22.29
2018-05-09T10:15:25.562Z,22.25
2018-05-09T10:16:25.578Z,22.25
2018-05-09T10:17:25.589Z,22.18
2018-05-09T10:18:25.786Z,22.20
2018-05-09T10:19:25.572Z,22.10
2018-05-09T10:20:25.575Z,22.08
2018-05-09T10:21:25.577Z,22.13
2018-05-09T10:22:25.781Z,22.18
2018-05-09T10:23:25.581Z,22.02
2018-05-09T10:24:25.583Z,21.99
2018-05-09T10:25:25.787Z,22.02
2018-05-09T10:26:25.611Z,22.07
2018-05-09T10:27:25.794Z,22.04
2018-05-09T10:28:25.590Z,22.18
2018-05-09T10:29:25.796Z,22.11
2018-05-09T10:30:25.593Z,22.33
2018-05-09T10:31:25.655Z,22.26
2018-05-09T10:32:25.599Z,22.30
2018-05-09T10:33:25.613Z,22.25
2018-05-09T10:34:25.603Z,22.30
2018-05-09T10:35:25.807Z,22.32
2018-05-09T10:36:25.621Z,22.41
2018-05-09T10:37:25.813Z,22.75
2018-05-09T10:38:25.608Z,23.00
2018-05-09T10:39:25.627Z,23.51
2018-05-09T10:40:25.627Z,24.03
2018-05-09T10:41:25.834Z,24.28
2018-05-09T10:42:25.630Z,24.60
2018-05-09T10:43:25.630Z,24.58
2018-05-09T10:44:25.639Z,24.51
2018-05-09T10:45:25.669Z,24.26
2018-05-09T10:46:25.641Z,24.06
2018-05-09T10:47:25.844Z,24.11
2018-05-09T10:48:25.633Z,24.30
2018-05-09T10:49:25.640Z,24.57
2018-05-09T10:50:25.641Z,24.93
2018-05-09T10:51:25.639Z,24.96
2018-05-09T10:52:25.650Z,24.86
2018-05-09T10:53:25.655Z,24.61
2018-05-09T10:54:25.658Z,24.13
2018-05-09T10:55:25.651Z,24.11
2018-05-09T10:56:25.651Z,24.03
2018-05-09T10:57:25.654Z,24.23
2018-05-09T10:58:25.668Z,24.38
2018-05-09T10:59:25.659Z,24.76
2018-05-09T11:00:25.667Z,24.68
2018-05-09T11:01:25.877Z,24.40
2018-05-09T11:02:25.676Z,24.14
2018-05-09T11:03:25.665Z,24.08
2018-05-09T11:04:25.704Z,24.08
2018-05-09T11:05:25.687Z,24.08
2018-05-09T11:06:25.684Z,24.24
2018-05-09T11:07:25.687Z,24.20
2018-05-09T11:08:25.686Z,24.18
2018-05-09T11:09:25.683Z,24.21
2018-05-09T11:10:25.760Z,24.20
2018-05-09T11:11:25.899Z,24.17
2018-05-09T11:12:25.697Z,24.20
2018-05-09T11:13:25.687Z,24.40
2018-05-09T11:14:25.718Z,24.29
2018-05-09T11:15:25.707Z,24.63
2018-05-09T11:16:25.698Z,24.69
2018-05-09T11:17:25.981Z,24.74
2018-05-09T11:18:25.715Z,25.01
2018-05-09T11:19:25.929Z,25.01
2018-05-09T11:20:25.909Z,24.92
2018-05-09T11:21:25.931Z,24.77
2018-05-09T11:22:25.727Z,24.69
2018-05-09T11:23:25.712Z,24.85
2018-05-09T11:24:25.964Z,24.98
2018-05-09T11:25:25.720Z,25.06
2018-05-09T11:26:25.925Z,25.22
2018-05-09T11:27:25.724Z,25.31
2018-05-09T11:28:25.942Z,25.29
2018-05-09T11:29:25.765Z,25.31
2018-05-09T11:30:25.731Z,25.22
2018-05-09T11:31:25.736Z,25.17
2018-05-09T11:32:25.740Z,25.33
2018-05-09T11:33:25.754Z,25.32
2018-05-09T11:34:25.757Z,25.23
2018-05-09T11:35:25.745Z,24.89
2018-05-09T11:36:25.749Z,24.55
2018-05-09T11:37:26.025Z,24.02
2018-05-09T11:38:25.779Z,23.81
2018-05-09T11:39:25.958Z,23.65
2018-05-09T11:40:25.761Z,23.56
2018-05-09T11:41:25.763Z,23.46
2018-05-09T11:42:25.763Z,23.41
2018-05-09T11:43:25.776Z,23.36
2018-05-09T11:44:25.776Z,23.32
2018-05-09T11:45:25.775Z,23.23
2018-05-09T11:46:25.980Z,23.34
2018-05-09T11:47:25.778Z,23.69
2018-05-09T11:48:25.787Z,24.35
2018-05-09T11:49:25.796Z,24.68
2018-05-09T11:50:25.787Z,24.84
2018-05-09T11:51:25.799Z,24.95
2018-05-09T11:52:26.006Z,24.80
2018-05-09T11:53:26.012Z,24.68
2018-05-09T11:54:25.820Z,24.73
2018-05-09T11:55:26.002Z,24.65
2018-05-09T11:56:25.801Z,24.81
2018-05-09T11:57:25.804Z,24.93
2018-05-09T11:58:25.819Z,24.85
2018-05-09T11:59:25.823Z,24.76
2018-05-09T12:00:25.815Z,24.57
2018-05-09T12:01:25.817Z,24.63
2018-05-09T12:02:25.907Z,24.85
2018-05-09T12:03:25.843Z,24.95
2018-05-09T12:04:25.832Z,24.98
2018-05-09T12:05:25.829Z,24.95
2018-05-09T12:06:25.833Z,25.14
2018-05-09T12:07:25.832Z,25.33
2018-05-09T12:08:25.840Z,25.31
2018-05-09T12:09:25.840Z,25.31
2018-05-09T12:10:25.895Z,25.28
2018-05-09T12:11:25.842Z,25.48
2018-05-09T12:12:25.845Z,25.55
2018-05-09T12:13:26.053Z,25.54
2018-05-09T12:14:25.871Z,25.58
2018-05-09T12:15:25.856Z,25.60
2018-05-09T12:16:26.075Z,25.48
2018-05-09T12:17:26.081Z,25.21
2018-05-09T12:18:25.873Z,25.07
2018-05-09T12:19:26.082Z,24.81
2018-05-09T12:20:25.869Z,24.84
2018-05-09T12:21:25.872Z,24.78
2018-05-09T12:22:25.874Z,24.89
2018-05-09T12:23:25.888Z,24.99
2018-05-09T12:24:25.882Z,25.07
2018-05-09T12:25:25.894Z,24.95
2018-05-09T12:26:25.914Z,25.03
2018-05-09T12:27:25.900Z,24.95
2018-05-09T12:28:26.106Z,24.68
2018-05-09T12:29:25.904Z,24.63
2018-05-09T12:30:26.150Z,24.36
2018-05-09T12:31:25.909Z,24.28
2018-05-09T12:32:25.917Z,24.17
2018-05-09T12:33:25.917Z,24.28
2018-05-09T12:34:25.909Z,24.30
2018-05-09T12:35:25.928Z,24.43
2018-05-09T12:36:26.171Z,24.53
2018-05-09T12:37:25.929Z,24.58
2018-05-09T12:38:25.932Z,24.80
2018-05-09T12:39:25.936Z,24.92
2018-05-09T12:40:26.143Z,24.96
2018-05-09T12:41:25.947Z,25.03
2018-05-09T12:42:26.021Z,25.01
2018-05-09T12:43:25.936Z,24.93
2018-05-09T12:44:25.936Z,24.92
2018-05-09T12:45:25.939Z,24.84
2018-05-09T12:46:25.943Z,24.91
2018-05-09T12:47:25.955Z,24.91
2018-05-09T12:48:25.966Z,24.98
2018-05-09T12:49:25.962Z,24.92
2018-05-09T12:50:25.956Z,25.03
2018-05-09T12:51:26.172Z,24.98
2018-05-09T12:52:25.963Z,24.85